Hythe, Canada
Current Conditions -  °F | °C
As of 9:10 PM on Saturday 25 Oct 2014 (Local Time) from CYQU Reporting Station
Light Snow Light Snow  
Wind Chill: 24°   Ceiling: 1000
Heat Index: 34°   Visibility: 6mi
Dew Point: 32°   Wind: 16mph
Humidity: 93%   Direction: 70°ENE
Pressure: 29.58"   Gusts: NA
Location:  55.32°N, 119.57°W
Report Text: CYQU 260310Z 07014KT 6SM -RASN OVC010 01/00 A2958 RMK SC8 SLP047
Loading
Personal Weather Stations






























Interactive Weather Map
Tropical Storm Tracking
New forecast layout! Learn more

10-Day Weather Forecast

Advertisements
Track Severe Weather on mobile